sensor_id;sensor_type;location;lat;lon;timestamp;P1;durP1;ratioP1;P2;durP2;ratioP2
21494;SDS011;10909;53.590;10.054;2023-01-08T00:02:22;2.17;;;1.83;;
21494;SDS011;10909;53.590;10.054;2023-01-08T00:04:49;2.03;;;1.83;;
21494;SDS011;10909;53.590;10.054;2023-01-08T00:07:21;2.73;;;1.80;;
21494;SDS011;10909;53.590;10.054;2023-01-08T00:09:47;3.30;;;1.70;;
21494;SDS011;10909;53.590;10.054;2023-01-08T00:12:16;3.30;;;1.90;;
21494;SDS011;10909;53.590;10.054;2023-01-08T00:14:43;2.60;;;1.90;;
21494;SDS011;10909;53.590;10.054;2023-01-08T00:17:17;2.00;;;1.57;;
21494;SDS011;10909;53.590;10.054;2023-01-08T00:19:45;2.13;;;1.60;;
21494;SDS011;10909;53.590;10.054;2023-01-08T00:22:18;2.70;;;1.80;;
21494;SDS011;10909;53.590;10.054;2023-01-08T00:24:44;1.63;;;1.47;;
21494;SDS011;10909;53.590;10.054;2023-01-08T00:27:12;1.77;;;1.60;;
21494;SDS011;10909;53.590;10.054;2023-01-08T00:29:44;1.80;;;1.60;;
21494;SDS011;10909;53.590;10.054;2023-01-08T00:32:16;1.70;;;1.60;;
21494;SDS011;10909;53.590;10.054;2023-01-08T00:34:54;3.30;;;1.83;;
21494;SDS011;10909;53.590;10.054;2023-01-08T00:37:24;1.67;;;1.57;;
21494;SDS011;10909;53.590;10.054;2023-01-08T00:39:51;2.00;;;1.80;;
21494;SDS011;10909;53.590;10.054;2023-01-08T00:42:23;1.83;;;1.67;;
21494;SDS011;10909;53.590;10.054;2023-01-08T00:44:59;1.80;;;1.70;;
21494;SDS011;10909;53.590;10.054;2023-01-08T00:47:30;1.70;;;1.60;;
21494;SDS011;10909;53.590;10.054;2023-01-08T00:49:56;2.07;;;1.57;;
21494;SDS011;10909;53.590;10.054;2023-01-08T00:52:25;2.90;;;1.67;;
21494;SDS011;10909;53.590;10.054;2023-01-08T00:55:01;2.40;;;1.90;;
21494;SDS011;10909;53.590;10.054;2023-01-08T00:57:36;1.60;;;1.50;;
21494;SDS011;10909;53.590;10.054;2023-01-08T01:00:04;2.73;;;1.70;;
21494;SDS011;10909;53.590;10.054;2023-01-08T01:02:33;1.70;;;1.60;;
21494;SDS011;10909;53.590;10.054;2023-01-08T01:05:02;1.87;;;1.57;;
21494;SDS011;10909;53.590;10.054;2023-01-08T01:07:32;1.70;;;1.60;;
21494;SDS011;10909;53.590;10.054;2023-01-08T01:09:58;2.00;;;1.67;;
21494;SDS011;10909;53.590;10.054;2023-01-08T01:12:33;2.00;;;1.80;;
21494;SDS011;10909;53.590;10.054;2023-01-08T01:15:07;2.20;;;1.60;;
21494;SDS011;10909;53.590;10.054;2023-01-08T01:17:43;2.00;;;1.80;;
21494;SDS011;10909;53.590;10.054;2023-01-08T01:20:10;3.27;;;1.80;;
21494;SDS011;10909;53.590;10.054;2023-01-08T01:22:38;1.87;;;1.77;;
21494;SDS011;10909;53.590;10.054;2023-01-08T01:25:06;2.57;;;1.53;;
21494;SDS011;10909;53.590;10.054;2023-01-08T01:27:35;1.87;;;1.67;;
21494;SDS011;10909;53.590;10.054;2023-01-08T01:30:05;2.00;;;1.80;;
21494;SDS011;10909;53.590;10.054;2023-01-08T01:32:57;1.70;;;1.60;;
21494;SDS011;10909;53.590;10.054;2023-01-08T01:35:23;2.07;;;1.80;;
21494;SDS011;10909;53.590;10.054;2023-01-08T01:37:50;1.80;;;1.70;;
21494;SDS011;10909;53.590;10.054;2023-01-08T01:40:17;1.63;;;1.53;;
21494;SDS011;10909;53.590;10.054;2023-01-08T01:42:48;2.50;;;1.70;;
21494;SDS011;10909;53.590;10.054;2023-01-08T01:47:56;2.00;;;1.80;;
21494;SDS011;10909;53.590;10.054;2023-01-08T01:50:28;2.30;;;1.90;;
21494;SDS011;10909;53.590;10.054;2023-01-08T01:53:00;2.00;;;1.80;;
21494;SDS011;10909;53.590;10.054;2023-01-08T01:55:27;2.27;;;1.70;;
21494;SDS011;10909;53.590;10.054;2023-01-08T01:58:03;2.33;;;1.80;;
21494;SDS011;10909;53.590;10.054;2023-01-08T02:00:46;1.90;;;1.70;;
21494;SDS011;10909;53.590;10.054;2023-01-08T02:03:13;1.97;;;1.77;;
21494;SDS011;10909;53.590;10.054;2023-01-08T02:11:25;2.03;;;1.70;;
21494;SDS011;10909;53.590;10.054;2023-01-08T02:14:37;2.57;;;1.70;;
21494;SDS011;10909;53.590;10.054;2023-01-08T02:17:29;1.50;;;1.40;;
21494;SDS011;10909;53.590;10.054;2023-01-08T02:20:22;1.60;;;1.47;;
21494;SDS011;10909;53.590;10.054;2023-01-08T02:23:19;1.60;;;1.50;;
21494;SDS011;10909;53.590;10.054;2023-01-08T02:26:03;1.80;;;1.43;;
21494;SDS011;10909;53.590;10.054;2023-01-08T02:31:55;1.93;;;1.73;;
21494;SDS011;10909;53.590;10.054;2023-01-08T02:34:23;1.40;;;1.30;;
21494;SDS011;10909;53.590;10.054;2023-01-08T02:36:55;1.60;;;1.50;;
21494;SDS011;10909;53.590;10.054;2023-01-08T02:39:28;1.77;;;1.60;;
21494;SDS011;10909;53.590;10.054;2023-01-08T02:47:50;1.70;;;1.60;;
21494;SDS011;10909;53.590;10.054;2023-01-08T02:50:30;1.90;;;1.67;;
21494;SDS011;10909;53.590;10.054;2023-01-08T02:53:18;2.03;;;1.50;;
21494;SDS011;10909;53.590;10.054;2023-01-08T02:56:00;1.70;;;1.60;;
21494;SDS011;10909;53.590;10.054;2023-01-08T02:58:32;1.70;;;1.60;;
21494;SDS011;10909;53.590;10.054;2023-01-08T03:01:03;2.10;;;1.53;;
21494;SDS011;10909;53.590;10.054;2023-01-08T03:03:36;1.50;;;1.40;;
21494;SDS011;10909;53.590;10.054;2023-01-08T03:06:18;1.70;;;1.53;;
21494;SDS011;10909;53.590;10.054;2023-01-08T03:08:47;1.40;;;1.30;;
21494;SDS011;10909;53.590;10.054;2023-01-08T03:11:19;2.17;;;1.80;;
21494;SDS011;10909;53.590;10.054;2023-01-08T03:13:48;1.97;;;1.60;;
21494;SDS011;10909;53.590;10.054;2023-01-08T03:16:24;2.07;;;1.70;;
21494;SDS011;10909;53.590;10.054;2023-01-08T03:19:07;1.60;;;1.50;;
21494;SDS011;10909;53.590;10.054;2023-01-08T03:21:42;1.57;;;1.47;;
21494;SDS011;10909;53.590;10.054;2023-01-08T03:24:15;1.83;;;1.57;;
21494;SDS011;10909;53.590;10.054;2023-01-08T03:26:45;1.70;;;1.60;;
21494;SDS011;10909;53.590;10.054;2023-01-08T03:29:14;1.80;;;1.70;;
21494;SDS011;10909;53.590;10.054;2023-01-08T03:31:43;2.03;;;1.70;;
21494;SDS011;10909;53.590;10.054;2023-01-08T03:34:12;2.03;;;1.70;;
21494;SDS011;10909;53.590;10.054;2023-01-08T03:36:47;1.70;;;1.60;;
21494;SDS011;10909;53.590;10.054;2023-01-08T03:39:22;1.90;;;1.70;;
21494;SDS011;10909;53.590;10.054;2023-01-08T03:41:55;2.10;;;1.90;;
21494;SDS011;10909;53.590;10.054;2023-01-08T03:44:24;1.97;;;1.67;;
21494;SDS011;10909;53.590;10.054;2023-01-08T03:47:01;1.60;;;1.50;;
21494;SDS011;10909;53.590;10.054;2023-01-08T03:49:33;1.77;;;1.60;;
21494;SDS011;10909;53.590;10.054;2023-01-08T03:52:00;1.90;;;1.70;;
21494;SDS011;10909;53.590;10.054;2023-01-08T03:54:28;3.33;;;1.73;;
21494;SDS011;10909;53.590;10.054;2023-01-08T03:56:57;1.70;;;1.50;;
21494;SDS011;10909;53.590;10.054;2023-01-08T03:59:23;1.90;;;1.60;;
21494;SDS011;10909;53.590;10.054;2023-01-08T04:01:53;2.10;;;1.70;;
21494;SDS011;10909;53.590;10.054;2023-01-08T04:04:20;2.00;;;1.77;;
21494;SDS011;10909;53.590;10.054;2023-01-08T04:06:48;1.80;;;1.70;;
21494;SDS011;10909;53.590;10.054;2023-01-08T04:09:17;2.27;;;1.80;;
21494;SDS011;10909;53.590;10.054;2023-01-08T04:11:43;1.87;;;1.67;;
21494;SDS011;10909;53.590;10.054;2023-01-08T04:14:08;1.80;;;1.60;;
21494;SDS011;10909;53.590;10.054;2023-01-08T04:16:36;2.23;;;1.70;;
21494;SDS011;10909;53.590;10.054;2023-01-08T04:19:02;2.17;;;1.80;;
21494;SDS011;10909;53.590;10.054;2023-01-08T04:21:28;1.70;;;1.60;;
21494;SDS011;10909;53.590;10.054;2023-01-08T04:23:57;2.10;;;1.90;;
21494;SDS011;10909;53.590;10.054;2023-01-08T04:26:26;2.33;;;1.90;;
21494;SDS011;10909;53.590;10.054;2023-01-08T04:28:52;3.30;;;1.83;;
21494;SDS011;10909;53.590;10.054;2023-01-08T04:31:17;1.80;;;1.70;;
21494;SDS011;10909;53.590;10.054;2023-01-08T04:33:45;2.50;;;1.83;;
21494;SDS011;10909;53.590;10.054;2023-01-08T04:36:16;2.17;;;1.50;;
21494;SDS011;10909;53.590;10.054;2023-01-08T04:38:42;1.70;;;1.60;;
21494;SDS011;10909;53.590;10.054;2023-01-08T04:41:11;2.20;;;2.00;;
21494;SDS011;10909;53.590;10.054;2023-01-08T04:43:37;2.23;;;1.60;;
21494;SDS011;10909;53.590;10.054;2023-01-08T04:46:12;2.13;;;1.70;;
21494;SDS011;10909;53.590;10.054;2023-01-08T04:48:39;3.20;;;1.93;;
21494;SDS011;10909;53.590;10.054;2023-01-08T04:51:10;1.60;;;1.40;;
21494;SDS011;10909;53.590;10.054;2023-01-08T04:53:42;2.00;;;1.63;;
21494;SDS011;10909;53.590;10.054;2023-01-08T04:56:09;1.73;;;1.63;;
21494;SDS011;10909;53.590;10.054;2023-01-08T04:58:36;2.00;;;1.80;;
21494;SDS011;10909;53.590;10.054;2023-01-08T05:01:11;2.23;;;1.70;;
21494;SDS011;10909;53.590;10.054;2023-01-08T05:03:43;2.63;;;1.93;;
21494;SDS011;10909;53.590;10.054;2023-01-08T05:06:12;1.67;;;1.43;;
21494;SDS011;10909;53.590;10.054;2023-01-08T05:08:43;2.10;;;1.60;;
21494;SDS011;10909;53.590;10.054;2023-01-08T05:11:11;2.10;;;1.90;;
21494;SDS011;10909;53.590;10.054;2023-01-08T05:13:41;1.60;;;1.40;;
21494;SDS011;10909;53.590;10.054;2023-01-08T05:16:09;1.70;;;1.60;;
21494;SDS011;10909;53.590;10.054;2023-01-08T05:18:35;2.10;;;1.90;;
21494;SDS011;10909;53.590;10.054;2023-01-08T05:21:01;1.60;;;1.50;;
21494;SDS011;10909;53.590;10.054;2023-01-08T05:23:37;1.87;;;1.70;;
21494;SDS011;10909;53.590;10.054;2023-01-08T05:26:03;2.07;;;1.87;;
21494;SDS011;10909;53.590;10.054;2023-01-08T05:28:30;2.60;;;1.90;;
21494;SDS011;10909;53.590;10.054;2023-01-08T05:30:57;2.33;;;1.83;;
21494;SDS011;10909;53.590;10.054;2023-01-08T05:33:22;2.73;;;2.00;;
21494;SDS011;10909;53.590;10.054;2023-01-08T05:35:52;2.83;;;2.10;;
21494;SDS011;10909;53.590;10.054;2023-01-08T05:38:22;2.40;;;2.20;;
21494;SDS011;10909;53.590;10.054;2023-01-08T05:40:51;3.90;;;2.47;;
21494;SDS011;10909;53.590;10.054;2023-01-08T05:43:19;2.47;;;1.93;;
21494;SDS011;10909;53.590;10.054;2023-01-08T05:45:45;2.40;;;2.00;;
21494;SDS011;10909;53.590;10.054;2023-01-08T05:48:10;3.10;;;2.13;;
21494;SDS011;10909;53.590;10.054;2023-01-08T05:50:36;2.23;;;1.90;;
21494;SDS011;10909;53.590;10.054;2023-01-08T05:53:04;1.83;;;1.67;;
21494;SDS011;10909;53.590;10.054;2023-01-08T05:55:31;2.30;;;1.97;;
21494;SDS011;10909;53.590;10.054;2023-01-08T05:58:00;2.17;;;1.90;;
21494;SDS011;10909;53.590;10.054;2023-01-08T06:00:27;2.33;;;1.70;;
21494;SDS011;10909;53.590;10.054;2023-01-08T06:02:56;2.30;;;1.80;;
21494;SDS011;10909;53.590;10.054;2023-01-08T06:05:27;2.10;;;1.90;;
21494;SDS011;10909;53.590;10.054;2023-01-08T06:07:59;4.10;;;1.80;;
21494;SDS011;10909;53.590;10.054;2023-01-08T06:10:30;2.27;;;1.60;;
21494;SDS011;10909;53.590;10.054;2023-01-08T06:12:59;2.27;;;1.90;;
21494;SDS011;10909;53.590;10.054;2023-01-08T06:15:24;2.00;;;1.80;;
21494;SDS011;10909;53.590;10.054;2023-01-08T06:17:50;2.33;;;1.67;;
21494;SDS011;10909;53.590;10.054;2023-01-08T06:20:15;1.83;;;1.53;;
21494;SDS011;10909;53.590;10.054;2023-01-08T06:22:41;2.07;;;1.77;;
21494;SDS011;10909;53.590;10.054;2023-01-08T06:25:09;1.73;;;1.40;;
21494;SDS011;10909;53.590;10.054;2023-01-08T06:27:35;2.07;;;1.73;;
21494;SDS011;10909;53.590;10.054;2023-01-08T06:30:04;2.43;;;2.00;;
21494;SDS011;10909;53.590;10.054;2023-01-08T06:32:30;1.60;;;1.50;;
21494;SDS011;10909;53.590;10.054;2023-01-08T06:34:55;1.70;;;1.60;;
21494;SDS011;10909;53.590;10.054;2023-01-08T06:37:21;1.90;;;1.70;;
21494;SDS011;10909;53.590;10.054;2023-01-08T06:39:47;1.90;;;1.70;;
21494;SDS011;10909;53.590;10.054;2023-01-08T06:42:14;2.00;;;1.50;;
21494;SDS011;10909;53.590;10.054;2023-01-08T06:44:43;1.70;;;1.60;;
21494;SDS011;10909;53.590;10.054;2023-01-08T06:47:15;1.40;;;1.30;;
21494;SDS011;10909;53.590;10.054;2023-01-08T06:49:48;2.07;;;1.50;;
21494;SDS011;10909;53.590;10.054;2023-01-08T06:52:14;1.80;;;1.50;;
21494;SDS011;10909;53.590;10.054;2023-01-08T06:54:46;1.97;;;1.67;;
21494;SDS011;10909;53.590;10.054;2023-01-08T06:57:16;1.70;;;1.53;;
21494;SDS011;10909;53.590;10.054;2023-01-08T06:59:50;1.40;;;1.30;;
21494;SDS011;10909;53.590;10.054;2023-01-08T07:02:17;1.67;;;1.57;;
21494;SDS011;10909;53.590;10.054;2023-01-08T07:04:50;1.50;;;1.40;;
21494;SDS011;10909;53.590;10.054;2023-01-08T07:07:24;1.83;;;1.53;;
21494;SDS011;10909;53.590;10.054;2023-01-08T07:09:53;1.67;;;1.53;;
21494;SDS011;10909;53.590;10.054;2023-01-08T07:12:24;1.90;;;1.50;;
21494;SDS011;10909;53.590;10.054;2023-01-08T07:14:54;2.20;;;1.43;;
21494;SDS011;10909;53.590;10.054;2023-01-08T07:17:27;2.23;;;1.70;;
21494;SDS011;10909;53.590;10.054;2023-01-08T07:19:57;1.40;;;1.30;;
21494;SDS011;10909;53.590;10.054;2023-01-08T07:22:31;2.07;;;1.60;;
21494;SDS011;10909;53.590;10.054;2023-01-08T07:24:57;1.53;;;1.43;;
21494;SDS011;10909;53.590;10.054;2023-01-08T07:27:23;1.60;;;1.50;;
21494;SDS011;10909;53.590;10.054;2023-01-08T07:29:48;1.80;;;1.60;;
21494;SDS011;10909;53.590;10.054;2023-01-08T07:32:14;3.00;;;1.70;;
21494;SDS011;10909;53.590;10.054;2023-01-08T07:34:40;1.80;;;1.70;;
21494;SDS011;10909;53.590;10.054;2023-01-08T07:37:05;1.90;;;1.63;;
21494;SDS011;10909;53.590;10.054;2023-01-08T07:39:33;2.30;;;1.63;;
21494;SDS011;10909;53.590;10.054;2023-01-08T07:42:04;1.57;;;1.47;;
21494;SDS011;10909;53.590;10.054;2023-01-08T07:44:34;1.60;;;1.50;;
21494;SDS011;10909;53.590;10.054;2023-01-08T07:47:04;1.70;;;1.60;;
21494;SDS011;10909;53.590;10.054;2023-01-08T07:49:39;1.70;;;1.50;;
21494;SDS011;10909;53.590;10.054;2023-01-08T07:52:13;2.17;;;1.60;;
21494;SDS011;10909;53.590;10.054;2023-01-08T07:54:40;1.90;;;1.70;;
21494;SDS011;10909;53.590;10.054;2023-01-08T07:57:06;2.33;;;1.90;;
21494;SDS011;10909;53.590;10.054;2023-01-08T07:59:36;2.07;;;1.80;;
21494;SDS011;10909;53.590;10.054;2023-01-08T08:02:10;2.60;;;1.73;;
21494;SDS011;10909;53.590;10.054;2023-01-08T08:04:43;1.87;;;1.40;;
21494;SDS011;10909;53.590;10.054;2023-01-08T08:07:22;2.70;;;1.60;;
21494;SDS011;10909;53.590;10.054;2023-01-08T08:09:48;2.40;;;1.97;;
21494;SDS011;10909;53.590;10.054;2023-01-08T08:12:15;1.80;;;1.70;;
21494;SDS011;10909;53.590;10.054;2023-01-08T08:14:44;1.70;;;1.60;;
21494;SDS011;10909;53.590;10.054;2023-01-08T08:17:11;1.50;;;1.40;;
21494;SDS011;10909;53.590;10.054;2023-01-08T08:19:44;1.90;;;1.70;;
21494;SDS011;10909;53.590;10.054;2023-01-08T08:22:19;1.70;;;1.60;;
21494;SDS011;10909;53.590;10.054;2023-01-08T08:24:46;2.10;;;1.63;;
21494;SDS011;10909;53.590;10.054;2023-01-08T08:27:16;2.10;;;1.60;;
21494;SDS011;10909;53.590;10.054;2023-01-08T08:29:53;1.80;;;1.60;;
21494;SDS011;10909;53.590;10.054;2023-01-08T08:32:21;1.77;;;1.63;;
21494;SDS011;10909;53.590;10.054;2023-01-08T08:34:50;1.97;;;1.73;;
21494;SDS011;10909;53.590;10.054;2023-01-08T08:37:22;1.93;;;1.70;;
21494;SDS011;10909;53.590;10.054;2023-01-08T08:39:49;1.80;;;1.60;;
21494;SDS011;10909;53.590;10.054;2023-01-08T08:42:23;2.37;;;2.00;;
21494;SDS011;10909;53.590;10.054;2023-01-08T08:44:53;2.13;;;1.87;;
21494;SDS011;10909;53.590;10.054;2023-01-08T08:47:19;2.00;;;1.73;;
21494;SDS011;10909;53.590;10.054;2023-01-08T08:49:44;1.97;;;1.70;;
21494;SDS011;10909;53.590;10.054;2023-01-08T08:52:10;3.70;;;1.83;;
21494;SDS011;10909;53.590;10.054;2023-01-08T08:54:36;2.73;;;2.00;;
21494;SDS011;10909;53.590;10.054;2023-01-08T08:57:05;2.33;;;1.50;;
21494;SDS011;10909;53.590;10.054;2023-01-08T08:59:34;1.47;;;1.37;;
21494;SDS011;10909;53.590;10.054;2023-01-08T09:02:02;2.63;;;1.90;;
21494;SDS011;10909;53.590;10.054;2023-01-08T09:04:31;2.33;;;1.80;;
21494;SDS011;10909;53.590;10.054;2023-01-08T09:07:00;1.77;;;1.67;;
21494;SDS011;10909;53.590;10.054;2023-01-08T09:09:32;2.90;;;2.20;;
21494;SDS011;10909;53.590;10.054;2023-01-08T09:11:58;2.27;;;2.07;;
21494;SDS011;10909;53.590;10.054;2023-01-08T09:14:33;1.90;;;1.80;;
21494;SDS011;10909;53.590;10.054;2023-01-08T09:17:06;2.00;;;1.80;;
21494;SDS011;10909;53.590;10.054;2023-01-08T09:19:35;1.83;;;1.67;;
21494;SDS011;10909;53.590;10.054;2023-01-08T09:22:05;2.10;;;1.70;;
21494;SDS011;10909;53.590;10.054;2023-01-08T09:24:39;2.23;;;2.03;;
21494;SDS011;10909;53.590;10.054;2023-01-08T09:27:06;1.97;;;1.87;;
21494;SDS011;10909;53.590;10.054;2023-01-08T09:29:38;2.57;;;1.97;;
21494;SDS011;10909;53.590;10.054;2023-01-08T09:32:11;1.90;;;1.80;;
21494;SDS011;10909;53.590;10.054;2023-01-08T09:34:43;2.90;;;2.10;;
21494;SDS011;10909;53.590;10.054;2023-01-08T09:37:13;2.33;;;1.90;;
21494;SDS011;10909;53.590;10.054;2023-01-08T09:39:45;2.10;;;1.90;;
21494;SDS011;10909;53.590;10.054;2023-01-08T09:42:11;2.10;;;1.90;;
21494;SDS011;10909;53.590;10.054;2023-01-08T09:44:42;2.37;;;2.03;;
21494;SDS011;10909;53.590;10.054;2023-01-08T09:47:22;2.20;;;1.80;;
21494;SDS011;10909;53.590;10.054;2023-01-08T09:50:00;2.10;;;1.90;;
21494;SDS011;10909;53.590;10.054;2023-01-08T09:52:32;2.07;;;1.80;;
21494;SDS011;10909;53.590;10.054;2023-01-08T09:54:58;2.33;;;1.90;;
21494;SDS011;10909;53.590;10.054;2023-01-08T09:57:26;2.30;;;1.97;;
21494;SDS011;10909;53.590;10.054;2023-01-08T09:59:57;2.00;;;1.63;;
21494;SDS011;10909;53.590;10.054;2023-01-08T10:02:36;2.37;;;1.90;;
21494;SDS011;10909;53.590;10.054;2023-01-08T10:05:09;2.00;;;1.57;;
21494;SDS011;10909;53.590;10.054;2023-01-08T10:07:44;2.17;;;1.80;;
21494;SDS011;10909;53.590;10.054;2023-01-08T10:10:31;2.73;;;2.10;;
21494;SDS011;10909;53.590;10.054;2023-01-08T10:12:56;2.30;;;1.80;;
21494;SDS011;10909;53.590;10.054;2023-01-08T10:15:24;2.10;;;1.93;;
21494;SDS011;10909;53.590;10.054;2023-01-08T10:18:04;2.33;;;1.70;;
21494;SDS011;10909;53.590;10.054;2023-01-08T10:20:44;1.90;;;1.70;;
21494;SDS011;10909;53.590;10.054;2023-01-08T10:23:17;2.17;;;1.77;;
21494;SDS011;10909;53.590;10.054;2023-01-08T10:28:17;1.67;;;1.53;;
21494;SDS011;10909;53.590;10.054;2023-01-08T10:30:45;2.47;;;1.80;;
21494;SDS011;10909;53.590;10.054;2023-01-08T10:33:20;1.90;;;1.67;;
21494;SDS011;10909;53.590;10.054;2023-01-08T10:36:01;2.03;;;1.77;;
21494;SDS011;10909;53.590;10.054;2023-01-08T10:38:41;3.17;;;1.70;;
21494;SDS011;10909;53.590;10.054;2023-01-08T10:41:20;3.00;;;1.70;;
21494;SDS011;10909;53.590;10.054;2023-01-08T10:43:53;1.90;;;1.60;;
21494;SDS011;10909;53.590;10.054;2023-01-08T10:46:56;2.10;;;1.37;;
21494;SDS011;10909;53.590;10.054;2023-01-08T10:49:31;1.57;;;1.40;;
21494;SDS011;10909;53.590;10.054;2023-01-08T10:55:43;1.40;;;1.27;;
21494;SDS011;10909;53.590;10.054;2023-01-08T10:57:56;2.07;;;1.60;;
21494;SDS011;10909;53.590;10.054;2023-01-08T11:00:32;1.67;;;1.40;;
21494;SDS011;10909;53.590;10.054;2023-01-08T11:03:04;2.63;;;1.60;;
21494;SDS011;10909;53.590;10.054;2023-01-08T11:05:37;1.80;;;1.50;;
21494;SDS011;10909;53.590;10.054;2023-01-08T11:08:16;1.97;;;1.47;;
21494;SDS011;10909;53.590;10.054;2023-01-08T11:11:05;1.73;;;1.30;;
21494;SDS011;10909;53.590;10.054;2023-01-08T11:13:48;2.40;;;1.50;;
21494;SDS011;10909;53.590;10.054;2023-01-08T11:16:34;1.40;;;1.30;;
21494;SDS011;10909;53.590;10.054;2023-01-08T11:19:21;2.17;;;1.70;;
21494;SDS011;10909;53.590;10.054;2023-01-08T11:21:58;1.60;;;1.47;;
21494;SDS011;10909;53.590;10.054;2023-01-08T11:24:37;1.83;;;1.40;;
21494;SDS011;10909;53.590;10.054;2023-01-08T11:27:14;1.83;;;1.67;;
21494;SDS011;10909;53.590;10.054;2023-01-08T11:30:04;1.90;;;1.70;;
21494;SDS011;10909;53.590;10.054;2023-01-08T11:35:20;2.07;;;1.80;;
21494;SDS011;10909;53.590;10.054;2023-01-08T11:37:55;3.57;;;1.90;;
21494;SDS011;10909;53.590;10.054;2023-01-08T11:46:32;1.93;;;1.73;;
21494;SDS011;10909;53.590;10.054;2023-01-08T11:49:27;2.37;;;1.80;;
21494;SDS011;10909;53.590;10.054;2023-01-08T11:52:28;2.00;;;1.80;;
21494;SDS011;10909;53.590;10.054;2023-01-08T11:58:21;1.80;;;1.60;;
21494;SDS011;10909;53.590;10.054;2023-01-08T12:04:11;4.60;;;1.60;;
21494;SDS011;10909;53.590;10.054;2023-01-08T12:10:05;1.50;;;1.40;;
21494;SDS011;10909;53.590;10.054;2023-01-08T12:12:45;2.00;;;1.60;;
21494;SDS011;10909;53.590;10.054;2023-01-08T12:21:11;3.00;;;1.73;;
21494;SDS011;10909;53.590;10.054;2023-01-08T12:29:24;2.10;;;1.40;;
21494;SDS011;10909;53.590;10.054;2023-01-08T12:38:02;1.37;;;1.13;;
21494;SDS011;10909;53.590;10.054;2023-01-08T12:40:46;1.83;;;1.23;;
21494;SDS011;10909;53.590;10.054;2023-01-08T12:43:21;2.20;;;1.33;;
21494;SDS011;10909;53.590;10.054;2023-01-08T12:45:56;1.83;;;1.27;;
21494;SDS011;10909;53.590;10.054;2023-01-08T12:48:33;1.83;;;1.40;;
21494;SDS011;10909;53.590;10.054;2023-01-08T12:51:15;2.37;;;1.47;;
21494;SDS011;10909;53.590;10.054;2023-01-08T12:57:06;1.80;;;1.50;;
21494;SDS011;10909;53.590;10.054;2023-01-08T13:00:03;2.00;;;1.40;;
21494;SDS011;10909;53.590;10.054;2023-01-08T13:07:53;2.77;;;1.40;;
21494;SDS011;10909;53.590;10.054;2023-01-08T13:10:37;1.80;;;1.37;;
21494;SDS011;10909;53.590;10.054;2023-01-08T13:16:06;2.07;;;1.50;;
21494;SDS011;10909;53.590;10.054;2023-01-08T13:18:35;1.40;;;1.13;;
21494;SDS011;10909;53.590;10.054;2023-01-08T13:21:02;2.07;;;1.43;;
21494;SDS011;10909;53.590;10.054;2023-01-08T13:23:30;2.40;;;1.57;;
21494;SDS011;10909;53.590;10.054;2023-01-08T13:26:03;1.50;;;1.37;;
21494;SDS011;10909;53.590;10.054;2023-01-08T13:33:53;1.60;;;1.40;;
21494;SDS011;10909;53.590;10.054;2023-01-08T13:36:24;1.77;;;1.50;;
21494;SDS011;10909;53.590;10.054;2023-01-08T13:38:59;2.85;;;1.52;;
21494;SDS011;10909;53.590;10.054;2023-01-08T13:44:49;3.78;;;1.65;;
21494;SDS011;10909;53.590;10.054;2023-01-08T13:47:36;2.38;;;1.40;;
21494;SDS011;10909;53.590;10.054;2023-01-08T13:50:15;1.55;;;1.17;;
21494;SDS011;10909;53.590;10.054;2023-01-08T13:52:58;1.77;;;1.17;;
21494;SDS011;10909;53.590;10.054;2023-01-08T13:55:32;1.77;;;1.30;;
21494;SDS011;10909;53.590;10.054;2023-01-08T13:58:12;1.27;;;1.10;;
21494;SDS011;10909;53.590;10.054;2023-01-08T14:03:27;1.27;;;1.17;;
21494;SDS011;10909;53.590;10.054;2023-01-08T14:08:49;1.95;;;1.30;;
21494;SDS011;10909;53.590;10.054;2023-01-08T14:11:21;1.75;;;1.40;;
21494;SDS011;10909;53.590;10.054;2023-01-08T14:13:50;1.48;;;1.27;;
21494;SDS011;10909;53.590;10.054;2023-01-08T14:16:17;2.20;;;1.23;;
21494;SDS011;10909;53.590;10.054;2023-01-08T14:18:44;1.45;;;1.17;;
21494;SDS011;10909;53.590;10.054;2023-01-08T14:21:11;1.38;;;1.27;;
21494;SDS011;10909;53.590;10.054;2023-01-08T14:23:44;1.85;;;1.00;;
21494;SDS011;10909;53.590;10.054;2023-01-08T14:26:17;1.88;;;1.00;;
21494;SDS011;10909;53.590;10.054;2023-01-08T14:28:56;2.85;;;1.30;;
21494;SDS011;10909;53.590;10.054;2023-01-08T14:31:25;2.53;;;1.10;;
21494;SDS011;10909;53.590;10.054;2023-01-08T14:33:52;4.82;;;1.40;;
21494;SDS011;10909;53.590;10.054;2023-01-08T14:36:19;2.23;;;1.00;;
21494;SDS011;10909;53.590;10.054;2023-01-08T14:38:48;2.33;;;1.10;;
21494;SDS011;10909;53.590;10.054;2023-01-08T14:41:32;4.27;;;1.70;;
21494;SDS011;10909;53.590;10.054;2023-01-08T14:44:20;3.27;;;1.17;;
21494;SDS011;10909;53.590;10.054;2023-01-08T14:46:50;2.13;;;1.17;;
21494;SDS011;10909;53.590;10.054;2023-01-08T14:49:25;6.37;;;1.30;;
21494;SDS011;10909;53.590;10.054;2023-01-08T14:51:55;1.97;;;1.23;;
21494;SDS011;10909;53.590;10.054;2023-01-08T14:54:31;3.07;;;1.50;;
21494;SDS011;10909;53.590;10.054;2023-01-08T14:56:59;2.33;;;1.27;;
21494;SDS011;10909;53.590;10.054;2023-01-08T14:59:28;2.53;;;1.27;;
21494;SDS011;10909;53.590;10.054;2023-01-08T15:02:00;3.07;;;1.20;;
21494;SDS011;10909;53.590;10.054;2023-01-08T15:04:28;3.00;;;1.20;;
21494;SDS011;10909;53.590;10.054;2023-01-08T15:07:15;3.00;;;1.20;;
21494;SDS011;10909;53.590;10.054;2023-01-08T15:09:53;1.80;;;1.00;;
21494;SDS011;10909;53.590;10.054;2023-01-08T15:12:29;4.80;;;1.30;;
21494;SDS011;10909;53.590;10.054;2023-01-08T15:15:10;2.83;;;1.47;;
21494;SDS011;10909;53.590;10.054;2023-01-08T15:17:36;2.37;;;1.13;;
21494;SDS011;10909;53.590;10.054;2023-01-08T15:20:05;5.73;;;2.60;;
21494;SDS011;10909;53.590;10.054;2023-01-08T15:22:40;2.73;;;1.50;;
21494;SDS011;10909;53.590;10.054;2023-01-08T15:25:15;2.60;;;1.27;;
21494;SDS011;10909;53.590;10.054;2023-01-08T15:27:56;1.83;;;1.20;;
21494;SDS011;10909;53.590;10.054;2023-01-08T15:30:35;2.40;;;1.23;;
21494;SDS011;10909;53.590;10.054;2023-01-08T15:33:17;5.67;;;1.40;;
21494;SDS011;10909;53.590;10.054;2023-01-08T15:35:45;3.17;;;1.20;;
21494;SDS011;10909;53.590;10.054;2023-01-08T15:38:13;3.20;;;1.23;;
21494;SDS011;10909;53.590;10.054;2023-01-08T15:40:39;2.83;;;1.20;;
21494;SDS011;10909;53.590;10.054;2023-01-08T15:43:10;2.80;;;0.90;;
21494;SDS011;10909;53.590;10.054;2023-01-08T15:45:42;2.90;;;0.90;;
21494;SDS011;10909;53.590;10.054;2023-01-08T15:48:12;1.77;;;1.00;;
21494;SDS011;10909;53.590;10.054;2023-01-08T15:50:40;3.20;;;1.20;;
21494;SDS011;10909;53.590;10.054;2023-01-08T15:53:11;1.40;;;1.00;;
21494;SDS011;10909;53.590;10.054;2023-01-08T15:55:43;2.47;;;1.50;;
21494;SDS011;10909;53.590;10.054;2023-01-08T15:58:11;2.93;;;1.40;;
21494;SDS011;10909;53.590;10.054;2023-01-08T16:00:40;4.00;;;1.50;;
21494;SDS011;10909;53.590;10.054;2023-01-08T16:03:10;2.53;;;1.40;;
21494;SDS011;10909;53.590;10.054;2023-01-08T16:05:38;3.03;;;1.40;;
21494;SDS011;10909;53.590;10.054;2023-01-08T16:08:04;3.43;;;1.60;;
21494;SDS011;10909;53.590;10.054;2023-01-08T16:10:30;2.20;;;1.40;;
21494;SDS011;10909;53.590;10.054;2023-01-08T16:12:56;2.43;;;1.30;;
21494;SDS011;10909;53.590;10.054;2023-01-08T16:15:24;2.43;;;1.33;;
21494;SDS011;10909;53.590;10.054;2023-01-08T16:17:56;2.43;;;1.40;;
21494;SDS011;10909;53.590;10.054;2023-01-08T16:20:23;2.70;;;1.23;;
21494;SDS011;10909;53.590;10.054;2023-01-08T16:22:51;2.43;;;1.43;;
21494;SDS011;10909;53.590;10.054;2023-01-08T16:25:21;2.37;;;1.30;;
21494;SDS011;10909;53.590;10.054;2023-01-08T16:27:54;2.30;;;1.33;;